sensor_id;sensor_type;location;lat;lon;timestamp;P1;durP1;ratioP1;P2;durP2;ratioP2
32198;SDS011;19221;42.656;21.156;2023-02-03T00:02:19;29.83;;;17.85;;
32198;SDS011;19221;42.656;21.156;2023-02-03T00:04:45;29.42;;;17.73;;
32198;SDS011;19221;42.656;21.156;2023-02-03T00:07:10;29.88;;;17.02;;
32198;SDS011;19221;42.656;21.156;2023-02-03T00:09:36;31.13;;;18.80;;
32198;SDS011;19221;42.656;21.156;2023-02-03T00:12:02;38.70;;;20.48;;
32198;SDS011;19221;42.656;21.156;2023-02-03T00:14:28;41.28;;;22.75;;
32198;SDS011;19221;42.656;21.156;2023-02-03T00:16:54;45.90;;;24.23;;
32198;SDS011;19221;42.656;21.156;2023-02-03T00:19:19;41.70;;;23.98;;
32198;SDS011;19221;42.656;21.156;2023-02-03T00:21:45;42.25;;;22.52;;
32198;SDS011;19221;42.656;21.156;2023-02-03T00:24:10;43.20;;;24.20;;
32198;SDS011;19221;42.656;21.156;2023-02-03T00:26:40;41.63;;;23.42;;
32198;SDS011;19221;42.656;21.156;2023-02-03T00:29:06;48.17;;;26.70;;
32198;SDS011;19221;42.656;21.156;2023-02-03T00:31:34;58.30;;;30.67;;
32198;SDS011;19221;42.656;21.156;2023-02-03T00:33:59;43.88;;;25.25;;
32198;SDS011;19221;42.656;21.156;2023-02-03T00:36:25;39.60;;;22.40;;
32198;SDS011;19221;42.656;21.156;2023-02-03T00:38:51;39.33;;;22.52;;
32198;SDS011;19221;42.656;21.156;2023-02-03T00:41:18;32.80;;;18.65;;
32198;SDS011;19221;42.656;21.156;2023-02-03T00:43:43;29.63;;;17.90;;
32198;SDS011;19221;42.656;21.156;2023-02-03T00:46:09;28.45;;;16.58;;
32198;SDS011;19221;42.656;21.156;2023-02-03T00:48:35;18.42;;;11.77;;
32198;SDS011;19221;42.656;21.156;2023-02-03T00:51:01;10.65;;;6.68;;
32198;SDS011;19221;42.656;21.156;2023-02-03T00:53:26;11.75;;;7.03;;
32198;SDS011;19221;42.656;21.156;2023-02-03T00:55:52;8.70;;;4.97;;
32198;SDS011;19221;42.656;21.156;2023-02-03T00:58:17;5.78;;;4.10;;
32198;SDS011;19221;42.656;21.156;2023-02-03T01:00:43;9.45;;;5.50;;
32198;SDS011;19221;42.656;21.156;2023-02-03T01:03:09;9.13;;;4.65;;
32198;SDS011;19221;42.656;21.156;2023-02-03T01:05:35;5.53;;;3.30;;
32198;SDS011;19221;42.656;21.156;2023-02-03T01:08:01;6.05;;;3.35;;
32198;SDS011;19221;42.656;21.156;2023-02-03T01:10:27;5.78;;;3.20;;
32198;SDS011;19221;42.656;21.156;2023-02-03T01:12:52;6.88;;;4.30;;
32198;SDS011;19221;42.656;21.156;2023-02-03T01:15:18;5.88;;;2.83;;
32198;SDS011;19221;42.656;21.156;2023-02-03T01:17:44;11.43;;;6.13;;
32198;SDS011;19221;42.656;21.156;2023-02-03T01:20:10;6.50;;;3.60;;
32198;SDS011;19221;42.656;21.156;2023-02-03T01:22:51;4.65;;;3.25;;
32198;SDS011;19221;42.656;21.156;2023-02-03T01:25:16;7.20;;;3.60;;
32198;SDS011;19221;42.656;21.156;2023-02-03T01:27:42;6.32;;;4.30;;
32198;SDS011;19221;42.656;21.156;2023-02-03T01:30:08;7.82;;;4.90;;
32198;SDS011;19221;42.656;21.156;2023-02-03T01:32:33;9.90;;;5.88;;
32198;SDS011;19221;42.656;21.156;2023-02-03T01:34:59;8.57;;;5.40;;
32198;SDS011;19221;42.656;21.156;2023-02-03T01:37:26;8.25;;;4.78;;
32198;SDS011;19221;42.656;21.156;2023-02-03T01:39:52;3.30;;;2.70;;
32198;SDS011;19221;42.656;21.156;2023-02-03T01:42:17;5.38;;;3.42;;
32198;SDS011;19221;42.656;21.156;2023-02-03T01:44:44;3.78;;;2.53;;
32198;SDS011;19221;42.656;21.156;2023-02-03T01:52:07;8.05;;;4.95;;
32198;SDS011;19221;42.656;21.156;2023-02-03T01:54:34;5.68;;;4.13;;
32198;SDS011;19221;42.656;21.156;2023-02-03T01:57:03;6.68;;;4.78;;
32198;SDS011;19221;42.656;21.156;2023-02-03T01:59:29;6.70;;;4.93;;
32198;SDS011;19221;42.656;21.156;2023-02-03T02:01:55;6.63;;;5.35;;
32198;SDS011;19221;42.656;21.156;2023-02-03T02:04:22;6.60;;;5.18;;
32198;SDS011;19221;42.656;21.156;2023-02-03T02:06:50;8.02;;;5.65;;
32198;SDS011;19221;42.656;21.156;2023-02-03T02:09:16;8.07;;;5.75;;
32198;SDS011;19221;42.656;21.156;2023-02-03T02:11:42;8.95;;;6.43;;
32198;SDS011;19221;42.656;21.156;2023-02-03T02:14:07;9.27;;;6.28;;
32198;SDS011;19221;42.656;21.156;2023-02-03T02:26:44;10.55;;;8.18;;
32198;SDS011;19221;42.656;21.156;2023-02-03T02:31:50;9.77;;;7.20;;
32198;SDS011;19221;42.656;21.156;2023-02-03T02:39:29;8.80;;;6.47;;
32198;SDS011;19221;42.656;21.156;2023-02-03T02:42:05;9.05;;;6.40;;
32198;SDS011;19221;42.656;21.156;2023-02-03T02:44:34;7.97;;;5.40;;
32198;SDS011;19221;42.656;21.156;2023-02-03T02:50:05;8.35;;;6.50;;
32198;SDS011;19221;42.656;21.156;2023-02-03T02:52:35;10.15;;;6.70;;
32198;SDS011;19221;42.656;21.156;2023-02-03T02:55:02;12.23;;;7.72;;
32198;SDS011;19221;42.656;21.156;2023-02-03T02:57:29;12.32;;;7.65;;
32198;SDS011;19221;42.656;21.156;2023-02-03T02:59:56;11.43;;;7.15;;
32198;SDS011;19221;42.656;21.156;2023-02-03T03:02:28;10.57;;;7.40;;
32198;SDS011;19221;42.656;21.156;2023-02-03T03:04:55;7.30;;;5.45;;
32198;SDS011;19221;42.656;21.156;2023-02-03T03:07:23;6.15;;;4.95;;
32198;SDS011;19221;42.656;21.156;2023-02-03T03:09:54;6.32;;;4.63;;
32198;SDS011;19221;42.656;21.156;2023-02-03T03:12:23;6.57;;;3.97;;
32198;SDS011;19221;42.656;21.156;2023-02-03T03:14:52;6.90;;;3.80;;
32198;SDS011;19221;42.656;21.156;2023-02-03T03:17:24;6.40;;;4.20;;
32198;SDS011;19221;42.656;21.156;2023-02-03T03:19:54;6.03;;;3.80;;
32198;SDS011;19221;42.656;21.156;2023-02-03T03:22:22;5.75;;;3.90;;
32198;SDS011;19221;42.656;21.156;2023-02-03T03:24:54;8.65;;;5.40;;
32198;SDS011;19221;42.656;21.156;2023-02-03T03:27:23;9.50;;;4.85;;
32198;SDS011;19221;42.656;21.156;2023-02-03T03:29:57;6.78;;;4.22;;
32198;SDS011;19221;42.656;21.156;2023-02-03T03:32:23;6.38;;;3.47;;
32198;SDS011;19221;42.656;21.156;2023-02-03T03:34:49;4.78;;;3.00;;
32198;SDS011;19221;42.656;21.156;2023-02-03T03:39:51;4.43;;;2.50;;
32198;SDS011;19221;42.656;21.156;2023-02-03T03:43:01;3.40;;;2.42;;
32198;SDS011;19221;42.656;21.156;2023-02-03T03:45:18;3.67;;;2.60;;
32198;SDS011;19221;42.656;21.156;2023-02-03T03:50:43;6.65;;;3.25;;
32198;SDS011;19221;42.656;21.156;2023-02-03T03:53:10;7.63;;;3.35;;
32198;SDS011;19221;42.656;21.156;2023-02-03T03:55:37;5.05;;;3.70;;
32198;SDS011;19221;42.656;21.156;2023-02-03T03:58:07;5.38;;;3.80;;
32198;SDS011;19221;42.656;21.156;2023-02-03T04:00:33;4.50;;;3.33;;
32198;SDS011;19221;42.656;21.156;2023-02-03T04:03:01;4.68;;;3.42;;
32198;SDS011;19221;42.656;21.156;2023-02-03T04:05:28;4.15;;;3.00;;
32198;SDS011;19221;42.656;21.156;2023-02-03T04:07:55;5.20;;;3.20;;
32198;SDS011;19221;42.656;21.156;2023-02-03T04:12:52;8.40;;;4.03;;
32198;SDS011;19221;42.656;21.156;2023-02-03T04:15:18;6.88;;;4.63;;
32198;SDS011;19221;42.656;21.156;2023-02-03T04:17:43;5.53;;;3.60;;
32198;SDS011;19221;42.656;21.156;2023-02-03T04:20:09;5.00;;;3.30;;
32198;SDS011;19221;42.656;21.156;2023-02-03T04:22:35;6.97;;;3.83;;
32198;SDS011;19221;42.656;21.156;2023-02-03T04:25:01;5.88;;;4.40;;
32198;SDS011;19221;42.656;21.156;2023-02-03T04:27:26;7.38;;;4.28;;
32198;SDS011;19221;42.656;21.156;2023-02-03T04:29:52;9.32;;;5.03;;
32198;SDS011;19221;42.656;21.156;2023-02-03T04:32:18;9.73;;;4.78;;
32198;SDS011;19221;42.656;21.156;2023-02-03T04:34:44;11.50;;;5.93;;
32198;SDS011;19221;42.656;21.156;2023-02-03T04:37:10;9.93;;;5.00;;
32198;SDS011;19221;42.656;21.156;2023-02-03T04:39:36;14.60;;;6.15;;
32198;SDS011;19221;42.656;21.156;2023-02-03T04:42:02;15.40;;;5.18;;
32198;SDS011;19221;42.656;21.156;2023-02-03T04:44:27;9.43;;;6.00;;
32198;SDS011;19221;42.656;21.156;2023-02-03T04:46:53;18.65;;;10.13;;
32198;SDS011;19221;42.656;21.156;2023-02-03T04:49:19;20.38;;;10.95;;
32198;SDS011;19221;42.656;21.156;2023-02-03T04:51:47;26.92;;;15.25;;
32198;SDS011;19221;42.656;21.156;2023-02-03T04:54:12;19.98;;;12.30;;
32198;SDS011;19221;42.656;21.156;2023-02-03T04:56:38;19.75;;;11.20;;
32198;SDS011;19221;42.656;21.156;2023-02-03T04:59:04;16.77;;;10.27;;
32198;SDS011;19221;42.656;21.156;2023-02-03T05:01:29;19.45;;;12.73;;
32198;SDS011;19221;42.656;21.156;2023-02-03T05:03:55;21.70;;;13.65;;
32198;SDS011;19221;42.656;21.156;2023-02-03T05:06:21;24.40;;;14.70;;
32198;SDS011;19221;42.656;21.156;2023-02-03T05:08:47;19.88;;;12.40;;
32198;SDS011;19221;42.656;21.156;2023-02-03T05:11:13;17.67;;;10.70;;
32198;SDS011;19221;42.656;21.156;2023-02-03T05:13:38;19.98;;;11.98;;
32198;SDS011;19221;42.656;21.156;2023-02-03T05:16:04;33.97;;;17.83;;
32198;SDS011;19221;42.656;21.156;2023-02-03T05:18:30;24.70;;;14.73;;
32198;SDS011;19221;42.656;21.156;2023-02-03T05:20:56;26.77;;;14.95;;
32198;SDS011;19221;42.656;21.156;2023-02-03T05:23:21;28.92;;;16.38;;
32198;SDS011;19221;42.656;21.156;2023-02-03T05:25:47;31.13;;;18.77;;
32198;SDS011;19221;42.656;21.156;2023-02-03T05:28:12;34.00;;;19.67;;
32198;SDS011;19221;42.656;21.156;2023-02-03T05:30:38;33.90;;;16.80;;
32198;SDS011;19221;42.656;21.156;2023-02-03T05:33:04;30.02;;;17.63;;
32198;SDS011;19221;42.656;21.156;2023-02-03T05:35:29;41.88;;;24.58;;
32198;SDS011;19221;42.656;21.156;2023-02-03T05:37:55;39.30;;;22.20;;
32198;SDS011;19221;42.656;21.156;2023-02-03T05:40:21;27.40;;;17.27;;
32198;SDS011;19221;42.656;21.156;2023-02-03T05:43:05;27.50;;;16.58;;
32198;SDS011;19221;42.656;21.156;2023-02-03T05:45:30;24.70;;;15.80;;
32198;SDS011;19221;42.656;21.156;2023-02-03T05:47:56;23.60;;;14.38;;
32198;SDS011;19221;42.656;21.156;2023-02-03T05:50:22;28.23;;;17.13;;
32198;SDS011;19221;42.656;21.156;2023-02-03T05:52:48;27.33;;;16.73;;
32198;SDS011;19221;42.656;21.156;2023-02-03T05:55:14;36.22;;;21.92;;
32198;SDS011;19221;42.656;21.156;2023-02-03T05:57:40;38.50;;;20.20;;
32198;SDS011;19221;42.656;21.156;2023-02-03T06:00:06;28.08;;;16.27;;
32198;SDS011;19221;42.656;21.156;2023-02-03T06:02:32;25.65;;;14.73;;
32198;SDS011;19221;42.656;21.156;2023-02-03T06:04:57;24.60;;;13.48;;
32198;SDS011;19221;42.656;21.156;2023-02-03T06:07:23;23.33;;;14.27;;
32198;SDS011;19221;42.656;21.156;2023-02-03T06:09:49;23.92;;;14.68;;
32198;SDS011;19221;42.656;21.156;2023-02-03T06:12:14;28.80;;;16.42;;
32198;SDS011;19221;42.656;21.156;2023-02-03T06:14:40;27.48;;;18.05;;
32198;SDS011;19221;42.656;21.156;2023-02-03T06:17:06;45.85;;;26.40;;
32198;SDS011;19221;42.656;21.156;2023-02-03T06:19:32;37.30;;;22.52;;
32198;SDS011;19221;42.656;21.156;2023-02-03T06:21:57;36.65;;;23.15;;
32198;SDS011;19221;42.656;21.156;2023-02-03T06:24:23;42.45;;;24.33;;
32198;SDS011;19221;42.656;21.156;2023-02-03T06:26:48;38.40;;;23.85;;
32198;SDS011;19221;42.656;21.156;2023-02-03T06:29:14;39.35;;;25.60;;
32198;SDS011;19221;42.656;21.156;2023-02-03T06:31:40;45.88;;;27.35;;
32198;SDS011;19221;42.656;21.156;2023-02-03T06:34:05;43.17;;;27.13;;
32198;SDS011;19221;42.656;21.156;2023-02-03T06:36:31;54.83;;;34.20;;
32198;SDS011;19221;42.656;21.156;2023-02-03T06:38:57;56.65;;;35.25;;
32198;SDS011;19221;42.656;21.156;2023-02-03T06:41:23;50.88;;;31.27;;
32198;SDS011;19221;42.656;21.156;2023-02-03T06:43:53;50.60;;;31.45;;
32198;SDS011;19221;42.656;21.156;2023-02-03T06:46:18;52.30;;;32.30;;
32198;SDS011;19221;42.656;21.156;2023-02-03T06:48:44;58.85;;;35.08;;
32198;SDS011;19221;42.656;21.156;2023-02-03T06:51:09;53.13;;;33.30;;
32198;SDS011;19221;42.656;21.156;2023-02-03T06:53:35;48.97;;;31.55;;
32198;SDS011;19221;42.656;21.156;2023-02-03T06:56:01;51.78;;;32.35;;
32198;SDS011;19221;42.656;21.156;2023-02-03T06:58:27;42.60;;;27.45;;
32198;SDS011;19221;42.656;21.156;2023-02-03T07:00:56;41.92;;;27.25;;
32198;SDS011;19221;42.656;21.156;2023-02-03T07:03:22;45.30;;;29.80;;
32198;SDS011;19221;42.656;21.156;2023-02-03T07:05:47;52.13;;;33.90;;
32198;SDS011;19221;42.656;21.156;2023-02-03T07:08:13;48.03;;;31.55;;
32198;SDS011;19221;42.656;21.156;2023-02-03T07:10:39;55.55;;;34.67;;
32198;SDS011;19221;42.656;21.156;2023-02-03T07:13:06;61.03;;;37.72;;
32198;SDS011;19221;42.656;21.156;2023-02-03T07:15:32;65.97;;;39.88;;
32198;SDS011;19221;42.656;21.156;2023-02-03T07:17:57;25.05;;;16.17;;
32198;SDS011;19221;42.656;21.156;2023-02-03T07:20:23;43.85;;;26.15;;
32198;SDS011;19221;42.656;21.156;2023-02-03T07:22:52;46.40;;;29.58;;
32198;SDS011;19221;42.656;21.156;2023-02-03T07:25:18;55.50;;;33.30;;
32198;SDS011;19221;42.656;21.156;2023-02-03T07:27:44;62.92;;;37.38;;
32198;SDS011;19221;42.656;21.156;2023-02-03T07:30:10;68.45;;;40.38;;
32198;SDS011;19221;42.656;21.156;2023-02-03T07:32:36;69.13;;;42.40;;
32198;SDS011;19221;42.656;21.156;2023-02-03T07:35:02;69.38;;;42.55;;
32198;SDS011;19221;42.656;21.156;2023-02-03T07:37:27;72.75;;;42.63;;
32198;SDS011;19221;42.656;21.156;2023-02-03T07:39:53;81.70;;;48.20;;
32198;SDS011;19221;42.656;21.156;2023-02-03T07:42:19;87.60;;;50.97;;
32198;SDS011;19221;42.656;21.156;2023-02-03T07:44:44;86.20;;;49.08;;
32198;SDS011;19221;42.656;21.156;2023-02-03T07:47:10;85.20;;;48.55;;
32198;SDS011;19221;42.656;21.156;2023-02-03T07:49:36;82.38;;;49.85;;
32198;SDS011;19221;42.656;21.156;2023-02-03T07:52:01;84.70;;;49.85;;
32198;SDS011;19221;42.656;21.156;2023-02-03T07:54:27;76.18;;;42.58;;
32198;SDS011;19221;42.656;21.156;2023-02-03T07:56:54;81.28;;;46.55;;
32198;SDS011;19221;42.656;21.156;2023-02-03T07:59:20;43.90;;;23.58;;
32198;SDS011;19221;42.656;21.156;2023-02-03T08:01:45;51.22;;;28.40;;
32198;SDS011;19221;42.656;21.156;2023-02-03T08:04:11;60.67;;;32.78;;
32198;SDS011;19221;42.656;21.156;2023-02-03T08:06:41;52.78;;;32.28;;
32198;SDS011;19221;42.656;21.156;2023-02-03T08:09:07;56.47;;;32.85;;
32198;SDS011;19221;42.656;21.156;2023-02-03T08:11:32;44.33;;;27.17;;
32198;SDS011;19221;42.656;21.156;2023-02-03T08:13:58;32.08;;;18.73;;
32198;SDS011;19221;42.656;21.156;2023-02-03T08:16:24;30.13;;;17.80;;
32198;SDS011;19221;42.656;21.156;2023-02-03T08:18:49;26.33;;;14.70;;
32198;SDS011;19221;42.656;21.156;2023-02-03T08:21:16;21.02;;;14.57;;
32198;SDS011;19221;42.656;21.156;2023-02-03T08:23:42;27.65;;;16.13;;
32198;SDS011;19221;42.656;21.156;2023-02-03T08:26:07;32.55;;;17.60;;
32198;SDS011;19221;42.656;21.156;2023-02-03T08:28:33;30.67;;;18.05;;
32198;SDS011;19221;42.656;21.156;2023-02-03T08:30:59;34.08;;;19.08;;
32198;SDS011;19221;42.656;21.156;2023-02-03T08:33:25;30.92;;;18.40;;
32198;SDS011;19221;42.656;21.156;2023-02-03T08:35:52;34.55;;;19.77;;
32198;SDS011;19221;42.656;21.156;2023-02-03T08:38:17;40.42;;;19.85;;
32198;SDS011;19221;42.656;21.156;2023-02-03T08:40:43;29.73;;;17.80;;
32198;SDS011;19221;42.656;21.156;2023-02-03T08:43:09;39.30;;;19.40;;
32198;SDS011;19221;42.656;21.156;2023-02-03T08:45:35;33.17;;;18.80;;
32198;SDS011;19221;42.656;21.156;2023-02-03T08:48:01;36.92;;;19.33;;
32198;SDS011;19221;42.656;21.156;2023-02-03T08:50:26;36.60;;;20.35;;
32198;SDS011;19221;42.656;21.156;2023-02-03T08:52:52;37.38;;;21.00;;
32198;SDS011;19221;42.656;21.156;2023-02-03T08:55:18;27.45;;;16.30;;
32198;SDS011;19221;42.656;21.156;2023-02-03T08:57:43;27.02;;;15.55;;
32198;SDS011;19221;42.656;21.156;2023-02-03T09:00:10;34.60;;;18.40;;
32198;SDS011;19221;42.656;21.156;2023-02-03T09:02:36;32.53;;;18.95;;
32198;SDS011;19221;42.656;21.156;2023-02-03T09:05:02;28.30;;;15.02;;
32198;SDS011;19221;42.656;21.156;2023-02-03T09:07:28;28.58;;;15.32;;
32198;SDS011;19221;42.656;21.156;2023-02-03T09:09:54;34.00;;;17.52;;
32198;SDS011;19221;42.656;21.156;2023-02-03T09:12:20;37.80;;;18.95;;
32198;SDS011;19221;42.656;21.156;2023-02-03T09:14:45;33.95;;;18.02;;
32198;SDS011;19221;42.656;21.156;2023-02-03T09:17:11;24.17;;;14.27;;
32198;SDS011;19221;42.656;21.156;2023-02-03T09:19:37;20.85;;;12.95;;
32198;SDS011;19221;42.656;21.156;2023-02-03T09:22:03;24.75;;;12.18;;
32198;SDS011;19221;42.656;21.156;2023-02-03T09:24:28;17.85;;;9.77;;
32198;SDS011;19221;42.656;21.156;2023-02-03T09:26:54;14.38;;;8.50;;
32198;SDS011;19221;42.656;21.156;2023-02-03T09:29:20;16.15;;;9.35;;
32198;SDS011;19221;42.656;21.156;2023-02-03T09:31:48;15.45;;;8.90;;
32198;SDS011;19221;42.656;21.156;2023-02-03T09:34:13;20.00;;;9.80;;
32198;SDS011;19221;42.656;21.156;2023-02-03T09:36:39;16.92;;;10.50;;
32198;SDS011;19221;42.656;21.156;2023-02-03T09:39:05;15.82;;;9.13;;
32198;SDS011;19221;42.656;21.156;2023-02-03T09:46:31;7.18;;;4.88;;
32198;SDS011;19221;42.656;21.156;2023-02-03T09:49:11;10.25;;;5.65;;
32198;SDS011;19221;42.656;21.156;2023-02-03T09:51:54;9.63;;;5.35;;
32198;SDS011;19221;42.656;21.156;2023-02-03T09:54:27;8.80;;;5.63;;
32198;SDS011;19221;42.656;21.156;2023-02-03T09:56:57;8.20;;;5.05;;
32198;SDS011;19221;42.656;21.156;2023-02-03T09:59:25;12.50;;;7.72;;
32198;SDS011;19221;42.656;21.156;2023-02-03T10:01:54;9.15;;;5.72;;
32198;SDS011;19221;42.656;21.156;2023-02-03T10:19:47;6.70;;;4.00;;
32198;SDS011;19221;42.656;21.156;2023-02-03T10:22:17;9.13;;;5.25;;
32198;SDS011;19221;42.656;21.156;2023-02-03T10:24:55;5.70;;;4.00;;
32198;SDS011;19221;42.656;21.156;2023-02-03T10:27:22;10.07;;;6.47;;
32198;SDS011;19221;42.656;21.156;2023-02-03T10:32:32;13.88;;;6.88;;
32198;SDS011;19221;42.656;21.156;2023-02-03T10:35:00;12.70;;;6.28;;
32198;SDS011;19221;42.656;21.156;2023-02-03T10:37:29;8.48;;;5.80;;
32198;SDS011;19221;42.656;21.156;2023-02-03T10:39:57;9.75;;;6.53;;
32198;SDS011;19221;42.656;21.156;2023-02-03T10:42:24;8.50;;;5.57;;
32198;SDS011;19221;42.656;21.156;2023-02-03T10:44:56;8.25;;;5.18;;
32198;SDS011;19221;42.656;21.156;2023-02-03T10:47:44;8.80;;;6.32;;
32198;SDS011;19221;42.656;21.156;2023-02-03T10:50:16;9.32;;;5.78;;
32198;SDS011;19221;42.656;21.156;2023-02-03T10:52:42;7.63;;;4.93;;
32198;SDS011;19221;42.656;21.156;2023-02-03T10:57:47;10.75;;;6.47;;
32198;SDS011;19221;42.656;21.156;2023-02-03T11:02:42;14.32;;;8.05;;
32198;SDS011;19221;42.656;21.156;2023-02-03T11:10:24;20.20;;;11.10;;
32198;SDS011;19221;42.656;21.156;2023-02-03T11:12:50;10.00;;;6.00;;
32198;SDS011;19221;42.656;21.156;2023-02-03T11:15:16;28.80;;;18.70;;
32198;SDS011;19221;42.656;21.156;2023-02-03T11:17:42;9.93;;;6.00;;
32198;SDS011;19221;42.656;21.156;2023-02-03T11:20:12;13.02;;;7.60;;
32198;SDS011;19221;42.656;21.156;2023-02-03T11:22:39;7.15;;;4.75;;
32198;SDS011;19221;42.656;21.156;2023-02-03T11:25:15;9.85;;;5.70;;
32198;SDS011;19221;42.656;21.156;2023-02-03T11:27:41;7.05;;;4.90;;
32198;SDS011;19221;42.656;21.156;2023-02-03T11:30:13;8.70;;;4.55;;
32198;SDS011;19221;42.656;21.156;2023-02-03T11:32:41;7.25;;;4.85;;
32198;SDS011;19221;42.656;21.156;2023-02-03T11:35:17;14.95;;;7.68;;
32198;SDS011;19221;42.656;21.156;2023-02-03T11:37:44;8.73;;;5.65;;
32198;SDS011;19221;42.656;21.156;2023-02-03T11:40:12;8.55;;;5.25;;
32198;SDS011;19221;42.656;21.156;2023-02-03T11:47:46;7.03;;;4.70;;
32198;SDS011;19221;42.656;21.156;2023-02-03T12:16:39;3.97;;;2.60;;
32198;SDS011;19221;42.656;21.156;2023-02-03T12:19:15;8.05;;;3.90;;
32198;SDS011;19221;42.656;21.156;2023-02-03T12:21:51;7.10;;;2.70;;
32198;SDS011;19221;42.656;21.156;2023-02-03T12:24:28;7.20;;;3.38;;
32198;SDS011;19221;42.656;21.156;2023-02-03T12:29:43;10.23;;;5.22;;
32198;SDS011;19221;42.656;21.156;2023-02-03T12:34:55;8.18;;;4.28;;
32198;SDS011;19221;42.656;21.156;2023-02-03T12:37:28;8.30;;;3.70;;
32198;SDS011;19221;42.656;21.156;2023-02-03T12:39:57;4.75;;;2.83;;
32198;SDS011;19221;42.656;21.156;2023-02-03T12:45:01;6.80;;;2.75;;
32198;SDS011;19221;42.656;21.156;2023-02-03T12:47:33;12.00;;;5.13;;
32198;SDS011;19221;42.656;21.156;2023-02-03T12:54:55;10.00;;;5.95;;
32198;SDS011;19221;42.656;21.156;2023-02-03T12:57:28;4.78;;;2.72;;
32198;SDS011;19221;42.656;21.156;2023-02-03T13:00:01;6.63;;;3.20;;
32198;SDS011;19221;42.656;21.156;2023-02-03T13:02:30;8.70;;;3.60;;
32198;SDS011;19221;42.656;21.156;2023-02-03T13:05:21;4.90;;;2.80;;
32198;SDS011;19221;42.656;21.156;2023-02-03T13:07:48;15.55;;;7.07;;
32198;SDS011;19221;42.656;21.156;2023-02-03T13:10:36;9.10;;;6.05;;
32198;SDS011;19221;42.656;21.156;2023-02-03T13:13:03;10.45;;;4.72;;
32198;SDS011;19221;42.656;21.156;2023-02-03T13:15:36;7.03;;;3.88;;
32198;SDS011;19221;42.656;21.156;2023-02-03T13:20:43;5.43;;;2.60;;
32198;SDS011;19221;42.656;21.156;2023-02-03T13:23:11;5.80;;;3.17;;
32198;SDS011;19221;42.656;21.156;2023-02-03T13:28:17;7.85;;;4.63;;
32198;SDS011;19221;42.656;21.156;2023-02-03T13:33:22;10.32;;;5.13;;
32198;SDS011;19221;42.656;21.156;2023-02-03T13:43:30;5.28;;;2.97;;
32198;SDS011;19221;42.656;21.156;2023-02-03T13:45:57;7.18;;;3.17;;
32198;SDS011;19221;42.656;21.156;2023-02-03T13:48:24;9.80;;;5.78;;
32198;SDS011;19221;42.656;21.156;2023-02-03T13:51:01;13.15;;;8.60;;
32198;SDS011;19221;42.656;21.156;2023-02-03T13:53:27;11.90;;;6.60;;
32198;SDS011;19221;42.656;21.156;2023-02-03T13:56:00;15.05;;;7.07;;
32198;SDS011;19221;42.656;21.156;2023-02-03T13:58:27;13.50;;;7.55;;
32198;SDS011;19221;42.656;21.156;2023-02-03T14:05:49;13.02;;;6.85;;
32198;SDS011;19221;42.656;21.156;2023-02-03T14:13:19;13.70;;;7.30;;
32198;SDS011;19221;42.656;21.156;2023-02-03T14:15:44;12.93;;;6.70;;
32198;SDS011;19221;42.656;21.156;2023-02-03T14:18:31;13.43;;;7.85;;
32198;SDS011;19221;42.656;21.156;2023-02-03T14:21:08;9.90;;;5.60;;
32198;SDS011;19221;42.656;21.156;2023-02-03T14:23:37;16.48;;;9.57;;
32198;SDS011;19221;42.656;21.156;2023-02-03T14:26:04;17.92;;;9.88;;
32198;SDS011;19221;42.656;21.156;2023-02-03T14:28:37;18.20;;;8.07;;
32198;SDS011;19221;42.656;21.156;2023-02-03T14:31:05;17.50;;;7.95;;
32198;SDS011;19221;42.656;21.156;2023-02-03T14:33:49;23.88;;;9.85;;
32198;SDS011;19221;42.656;21.156;2023-02-03T14:39:03;80.97;;;36.50;;
32198;SDS011;19221;42.656;21.156;2023-02-03T14:44:34;12.90;;;6.50;;
32198;SDS011;19221;42.656;21.156;2023-02-03T14:59:48;14.95;;;6.70;;
32198;SDS011;19221;42.656;21.156;2023-02-03T15:02:16;17.33;;;8.05;;
32198;SDS011;19221;42.656;21.156;2023-02-03T15:04:44;12.95;;;6.05;;
32198;SDS011;19221;42.656;21.156;2023-02-03T15:09:54;13.45;;;7.25;;
32198;SDS011;19221;42.656;21.156;2023-02-03T15:12:24;16.55;;;8.57;;
32198;SDS011;19221;42.656;21.156;2023-02-03T15:14:51;18.50;;;9.30;;
32198;SDS011;19221;42.656;21.156;2023-02-03T15:17:23;21.05;;;9.18;;
32198;SDS011;19221;42.656;21.156;2023-02-03T15:19:49;16.45;;;9.57;;
32198;SDS011;19221;42.656;21.156;2023-02-03T15:24:43;16.23;;;9.20;;
32198;SDS011;19221;42.656;21.156;2023-02-03T15:27:18;16.63;;;8.25;;
32198;SDS011;19221;42.656;21.156;2023-02-03T15:29:45;22.77;;;10.85;;
32198;SDS011;19221;42.656;21.156;2023-02-03T15:34:59;21.02;;;11.40;;
32198;SDS011;19221;42.656;21.156;2023-02-03T15:37:29;16.90;;;9.48;;
32198;SDS011;19221;42.656;21.156;2023-02-03T15:39:58;22.88;;;13.25;;
32198;SDS011;19221;42.656;21.156;2023-02-03T15:44:57;16.40;;;9.70;;
32198;SDS011;19221;42.656;21.156;2023-02-03T15:47:38;12.15;;;6.75;;
32198;SDS011;19221;42.656;21.156;2023-02-03T15:52:50;14.27;;;7.47;;
32198;SDS011;19221;42.656;21.156;2023-02-03T15:55:18;25.65;;;10.88;;
32198;SDS011;19221;42.656;21.156;2023-02-03T15:57:46;22.40;;;10.52;;
32198;SDS011;19221;42.656;21.156;2023-02-03T16:03:16;24.38;;;12.20;;
32198;SDS011;19221;42.656;21.156;2023-02-03T16:05:43;19.58;;;11.18;;
32198;SDS011;19221;42.656;21.156;2023-02-03T16:08:26;31.58;;;16.95;;
32198;SDS011;19221;42.656;21.156;2023-02-03T16:10:55;28.63;;;16.10;;
32198;SDS011;19221;42.656;21.156;2023-02-03T16:13:25;29.27;;;14.15;;
32198;SDS011;19221;42.656;21.156;2023-02-03T16:15:57;24.33;;;12.48;;
32198;SDS011;19221;42.656;21.156;2023-02-03T16:18:24;23.65;;;12.48;;
32198;SDS011;19221;42.656;21.156;2023-02-03T16:20:50;23.73;;;12.93;;
32198;SDS011;19221;42.656;21.156;2023-02-03T16:23:22;27.88;;;15.55;;
32198;SDS011;19221;42.656;21.156;2023-02-03T16:26:01;34.13;;;17.90;;
32198;SDS011;19221;42.656;21.156;2023-02-03T16:28:27;34.20;;;19.55;;
32198;SDS011;19221;42.656;21.156;2023-02-03T16:31:15;35.58;;;18.88;;
32198;SDS011;19221;42.656;21.156;2023-02-03T16:34:00;41.80;;;21.33;;
32198;SDS011;19221;42.656;21.156;2023-02-03T16:36:45;45.08;;;22.38;;
32198;SDS011;19221;42.656;21.156;2023-02-03T16:39:29;32.08;;;16.77;;
32198;SDS011;19221;42.656;21.156;2023-02-03T16:42:20;31.55;;;15.55;;
32198;SDS011;19221;42.656;21.156;2023-02-03T16:45:15;29.35;;;13.98;;
32198;SDS011;19221;42.656;21.156;2023-02-03T16:47:59;37.20;;;17.65;;
32198;SDS011;19221;42.656;21.156;2023-02-03T16:50:43;38.33;;;18.50;;
32198;SDS011;19221;42.656;21.156;2023-02-03T16:53:20;36.35;;;17.02;;
32198;SDS011;19221;42.656;21.156;2023-02-03T16:55:46;36.20;;;19.25;;
32198;SDS011;19221;42.656;21.156;2023-02-03T16:58:12;55.38;;;26.77;;
32198;SDS011;19221;42.656;21.156;2023-02-03T17:00:39;45.38;;;22.40;;
32198;SDS011;19221;42.656;21.156;2023-02-03T17:03:12;45.22;;;22.80;;
32198;SDS011;19221;42.656;21.156;2023-02-03T17:05:38;53.70;;;27.30;;
32198;SDS011;19221;42.656;21.156;2023-02-03T17:08:04;73.40;;;37.05;;
32198;SDS011;19221;42.656;21.156;2023-02-03T17:10:32;96.75;;;46.13;;
32198;SDS011;19221;42.656;21.156;2023-02-03T17:12:58;89.10;;;45.67;;
32198;SDS011;19221;42.656;21.156;2023-02-03T17:15:23;128.23;;;62.13;;
32198;SDS011;19221;42.656;21.156;2023-02-03T17:17:49;160.82;;;84.78;;